Metar/Speci

METEOROLOGICAL AERODROME REPORT
STASIUN METEOROLOGI HANG NADIM BATAM
ADDS - METARS form results

Aviation Digital Data Service (ADDS)

Output produced by METARs form (1044 UTC 24 July 2017)
found at http://aviationweather.gov/adds/metars/
 
METAR text: WIDD 241030Z 19009KT 9999 SCT014 30/24 Q1009 NOSIG
Conditions at: WIDD (HANG NADIM , ID) observed 1030 UTC 24 July 2017
Temperature: 30.0°C (86°F)
Dewpoint: 24.0°C (75°F) [RH = 70%]
Pressure (altimeter): 29.79 inches Hg (1009.0 mb)
Winds: from the S (190 degrees) at 10 MPH (9 knots; 4.7 m/s)
Visibility: 6 or more miles (10+ km)
Ceiling: at least 12,000 feet AGL
Clouds: scattered clouds at 1400 feet AGL
Weather: no significant weather observed at this time

Informasi METAR/SPECI dapat diakses juga di http://aviation.bmkg.go.id